Time;durP1;ratioP1;P1;durP2;ratioP2;P2;SDS_P1;SDS_P2;PMS_P1;PMS_P2;Temp;Humidity;BMP_temperature;BMP_pressure;BME280_temperature;BME280_humidity;BME280_pressure;Samples;Min_cycle;Max_cycle;Signal;HPM_P1;HPM_P2
2024/02/18 00:01:18;;;;;;;;;10.00;8.00;;;;;11.77;58.46;102745.66;5068517;27;45314;-59
2024/02/18 00:03:44;;;;;;;;;10.50;8.25;;;;;11.78;58.39;102747.38;5064487;27;67092;-59
2024/02/18 00:06:10;;;;;;;;;10.00;8.50;;;;;11.74;58.45;102752.66;5073141;27;45511;-58
2024/02/18 00:08:35;;;;;;;;;9.75;8.75;;;;;11.80;58.43;102757.03;5063750;27;48237;-59
2024/02/18 00:11:00;;;;;;;;;14.25;8.00;;;;;11.77;58.62;102756.16;5081773;27;45311;-58
2024/02/18 00:13:26;;;;;;;;;9.25;9.00;;;;;11.80;58.38;102755.25;5074264;27;49201;-57
2024/02/18 00:15:52;;;;;;;;;13.75;9.50;;;;;11.80;58.75;102757.03;5071747;27;45612;-56
2024/02/18 00:18:17;;;;;;;;;11.75;9.25;;;;;11.79;58.56;102750.88;5067157;28;46500;-59
2024/02/18 00:20:42;;;;;;;;;9.00;8.00;;;;;11.78;58.45;102746.53;5072221;27;65350;-57
2024/02/18 00:23:08;;;;;;;;;11.25;8.75;;;;;11.76;58.74;102743.91;5064024;27;54203;-59
2024/02/18 00:25:33;;;;;;;;;15.75;9.00;;;;;11.75;58.68;102747.38;5067245;27;45449;-59
2024/02/18 00:27:58;;;;;;;;;11.50;9.00;;;;;11.72;58.44;102739.53;5070124;27;74434;-60
2024/02/18 00:30:24;;;;;;;;;8.50;7.75;;;;;11.71;58.48;102732.53;5071178;27;70457;-59
2024/02/18 00:32:50;;;;;;;;;12.00;10.00;;;;;11.70;58.22;102735.16;5066367;27;45907;-59
2024/02/18 00:35:15;;;;;;;;;9.25;8.50;;;;;11.68;58.47;102723.78;5067078;28;45205;-59
2024/02/18 00:37:41;;;;;;;;;14.50;9.00;;;;;11.68;58.30;102723.78;5073212;27;45529;-59
2024/02/18 00:40:07;;;;;;;;;10.50;7.50;;;;;11.66;58.61;102731.66;5075011;27;45304;-59
2024/02/18 00:42:33;;;;;;;;;19.00;9.50;;;;;11.66;58.24;102733.41;5076281;27;45458;-59
2024/02/18 00:44:58;;;;;;;;;9.25;7.25;;;;;11.64;58.50;102727.28;5070479;28;45234;-58
2024/02/18 00:47:24;;;;;;;;;7.50;7.00;;;;;11.63;58.64;102742.13;5061114;27;75692;-59
2024/02/18 00:49:49;;;;;;;;;8.25;7.00;;;;;11.65;58.50;102742.13;5067791;27;73378;-59
2024/02/18 00:52:15;;;;;;;;;11.00;8.75;;;;;11.62;58.70;102753.50;5068593;27;45347;-59
2024/02/18 00:54:40;;;;;;;;;7.00;6.00;;;;;11.61;58.69;102750.88;5071165;27;46739;-59
2024/02/18 00:57:05;;;;;;;;;10.00;8.00;;;;;11.59;58.31;102754.38;5074906;27;75498;-59
2024/02/18 00:59:31;;;;;;;;;9.00;8.00;;;;;11.57;58.46;102758.75;5068971;27;72208;-59
2024/02/18 01:01:56;;;;;;;;;9.50;8.50;;;;;11.56;58.74;102745.63;5064893;27;45300;-59
2024/02/18 01:04:21;;;;;;;;;12.00;10.50;;;;;11.55;58.62;102742.13;5068143;28;52430;-60
2024/02/18 01:06:46;;;;;;;;;1.50;0.00;;;;;11.55;58.42;102746.50;5070267;27;74610;-59
2024/02/18 01:09:12;;;;;;;;;7.75;5.75;;;;;11.54;58.78;102744.75;5052153;28;65715;-59
2024/02/18 01:11:37;;;;;;;;;12.00;7.50;;;;;11.51;58.82;102743.00;5073432;27;45434;-57
2024/02/18 01:14:02;;;;;;;;;10.25;7.25;;;;;11.48;58.85;102734.25;5069684;27;70741;-59
2024/02/18 01:16:29;;;;;;;;;9.75;7.25;;;;;11.45;58.67;102729.00;5073111;27;75132;-59
2024/02/18 01:18:54;;;;;;;;;10.50;8.00;;;;;11.43;58.80;102736.00;5058401;27;45649;-58
2024/02/18 01:21:20;;;;;;;;;9.50;8.00;;;;;11.44;58.85;102740.34;5072060;27;68427;-59
2024/02/18 01:23:45;;;;;;;;;10.50;7.00;;;;;11.42;58.93;102742.09;5069741;28;45967;-59
2024/02/18 01:26:11;;;;;;;;;9.25;8.50;;;;;11.41;59.06;102741.25;5062605;28;45996;-58
2024/02/18 01:28:36;;;;;;;;;11.00;9.50;;;;;11.38;59.19;102747.38;5060137;27;71984;-56
2024/02/18 01:31:01;;;;;;;;;11.75;8.25;;;;;11.37;58.99;102745.59;5066154;27;45525;-57
2024/02/18 01:33:27;;;;;;;;;9.75;7.25;;;;;11.36;59.02;102742.97;5072624;28;54088;-57
2024/02/18 01:35:52;;;;;;;;;10.00;7.50;;;;;11.38;59.04;102736.88;5068943;28;45378;-57
2024/02/18 01:38:18;;;;;;;;;6.50;6.50;;;;;11.38;59.09;102738.59;5068705;27;45684;-59
2024/02/18 01:40:43;;;;;;;;;11.00;7.50;;;;;11.37;59.03;102729.00;5066628;27;68126;-58
2024/02/18 01:43:08;;;;;;;;;11.25;7.75;;;;;11.35;58.94;102731.63;5066479;27;45532;-59
2024/02/18 01:45:34;;;;;;;;;4.50;2.25;;;;;11.33;58.82;102736.00;5061008;27;75406;-58
2024/02/18 01:47:59;;;;;;;;;9.00;6.75;;;;;11.31;59.01;102732.47;5071630;27;72091;-58
2024/02/18 01:50:24;;;;;;;;;9.00;6.25;;;;;11.29;59.27;102723.72;5070273;27;69142;-59
2024/02/18 01:52:52;;;;;;;;;9.75;7.50;;;;;11.31;58.88;102721.13;5064714;28;51665;-59
2024/02/18 01:55:18;;;;;;;;;10.00;8.25;;;;;11.28;59.13;102718.47;5071893;28;46282;-59
2024/02/18 01:57:44;;;;;;;;;7.00;6.50;;;;;11.31;59.03;102721.97;5063842;28;45379;-59
2024/02/18 02:00:12;;;;;;;;;9.00;7.00;;;;;11.31;59.15;102715.88;5081792;27;45537;-58
2024/02/18 02:02:40;;;;;;;;;9.50;7.50;;;;;11.30;59.10;102708.91;5068832;28;45492;-58
2024/02/18 02:05:08;;;;;;;;;15.75;9.00;;;;;11.29;59.43;102713.25;5065639;28;48382;-58
2024/02/18 02:07:34;;;;;;;;;9.75;8.25;;;;;11.28;59.66;102711.50;5061625;27;45490;-58
2024/02/18 02:10:00;;;;;;;;;8.00;7.00;;;;;11.27;59.24;102712.38;5077961;28;58382;-58
2024/02/18 02:12:25;;;;;;;;;11.25;8.75;;;;;11.26;59.68;102704.50;5064275;27;45584;-58
2024/02/18 02:14:51;;;;;;;;;11.50;9.50;;;;;11.25;59.64;102703.63;5072963;28;46162;-58
2024/02/18 02:17:18;;;;;;;;;14.75;7.00;;;;;11.25;59.58;102703.63;5067164;27;63529;-58
2024/02/18 02:19:43;;;;;;;;;20.25;15.25;;;;;11.26;59.56;102702.78;5071464;28;45287;-59
2024/02/18 02:22:08;;;;;;;;;13.00;9.00;;;;;11.24;59.67;102696.63;5068967;27;45516;-58
2024/02/18 02:24:34;;;;;;;;;8.25;6.75;;;;;11.22;59.54;102701.00;5064686;28;73764;-58
2024/02/18 02:27:01;;;;;;;;;13.50;10.75;;;;;11.19;59.60;102701.88;5068734;28;72561;-59
2024/02/18 02:29:27;;;;;;;;;12.00;9.00;;;;;11.19;59.65;102703.59;5069415;28;45342;-58
2024/02/18 02:31:52;;;;;;;;;8.75;8.25;;;;;11.16;59.90;102704.50;5067104;27;45457;-58
2024/02/18 02:34:17;;;;;;;;;8.50;7.50;;;;;11.15;60.13;102704.47;5064474;28;46053;-58
2024/02/18 02:36:43;;;;;;;;;10.50;8.00;;;;;11.12;60.13;102688.75;5069509;27;45306;-58
2024/02/18 02:39:10;;;;;;;;;22.75;15.25;;;;;11.13;60.26;102701.00;5065501;27;45353;-57
2024/02/18 02:41:35;;;;;;;;;10.50;10.50;;;;;11.08;59.94;102681.75;5063932;27;45528;-56
2024/02/18 02:44:01;;;;;;;;;13.50;11.00;;;;;11.07;60.19;102688.75;5065799;28;71783;-56
2024/02/18 02:46:26;;;;;;;;;14.00;6.50;;;;;11.07;60.23;102686.13;5063967;28;70357;-58
2024/02/18 02:48:51;;;;;;;;;8.00;5.50;;;;;11.06;59.98;102683.50;5059752;28;45323;-58
2024/02/18 02:51:19;;;;;;;;;9.25;6.50;;;;;11.04;60.31;102680.88;5072595;27;72194;-58
2024/02/18 02:53:44;;;;;;;;;8.00;5.00;;;;;11.04;59.97;102680.88;5073940;28;46177;-59
2024/02/18 02:56:10;;;;;;;;;12.25;7.75;;;;;11.04;59.88;102672.16;5070421;28;45461;-59
2024/02/18 02:58:35;;;;;;;;;7.75;7.75;;;;;11.02;60.38;102667.78;5057683;28;68132;-58
2024/02/18 03:01:00;;;;;;;;;14.25;8.50;;;;;11.01;60.41;102666.03;5065646;27;61350;-59
2024/02/18 03:03:25;;;;;;;;;11.25;8.00;;;;;10.99;60.17;102661.66;5070618;28;64886;-59
2024/02/18 03:05:51;;;;;;;;;14.00;9.00;;;;;10.97;60.46;102651.16;5066719;28;73324;-59
2024/02/18 03:08:16;;;;;;;;;13.25;7.00;;;;;10.92;60.48;102639.81;5069767;28;45284;-59
2024/02/18 03:10:42;;;;;;;;;9.75;6.75;;;;;10.88;60.67;102630.19;5066217;27;45623;-59
2024/02/18 03:13:08;;;;;;;;;8.25;6.00;;;;;10.86;60.41;102628.47;5069137;28;45268;-59
2024/02/18 03:15:33;;;;;;;;;7.75;7.00;;;;;10.82;60.60;102624.97;5064591;28;67578;-59
2024/02/18 03:17:58;;;;;;;;;10.75;7.25;;;;;10.79;60.64;102615.34;5068690;28;48565;-59
2024/02/18 03:20:24;;;;;;;;;6.00;6.00;;;;;10.78;61.03;102617.94;5063101;27;57055;-59
2024/02/18 03:22:50;;;;;;;;;12.25;9.00;;;;;10.79;60.72;102619.69;5062829;28;46121;-59
2024/02/18 03:25:16;;;;;;;;;7.25;6.75;;;;;10.78;60.80;102616.22;5070180;27;45809;-59
2024/02/18 03:27:42;;;;;;;;;12.25;6.25;;;;;10.77;60.80;102622.31;5068751;28;45378;-59
2024/02/18 03:30:08;;;;;;;;;10.75;7.25;;;;;10.75;60.98;102615.34;5074423;27;45366;-59
2024/02/18 03:32:36;;;;;;;;;9.00;8.75;;;;;10.77;61.11;102616.22;5059195;28;45792;-58
2024/02/18 03:35:04;;;;;;;;;7.50;6.50;;;;;10.76;61.22;102614.44;5070254;28;45395;-59
2024/02/18 03:37:29;;;;;;;;;10.50;6.50;;;;;10.74;61.27;102609.22;5066899;28;45433;-59
2024/02/18 03:39:55;;;;;;;;;11.00;7.75;;;;;10.72;61.18;102608.34;5066951;28;45644;-59
2024/02/18 03:42:20;;;;;;;;;13.00;6.25;;;;;10.74;61.21;102597.88;5061230;27;75594;-58
2024/02/18 03:44:45;;;;;;;;;7.00;7.00;;;;;10.73;61.24;102593.50;5058649;28;45606;-59
2024/02/18 03:47:11;;;;;;;;;10.25;7.00;;;;;10.76;61.37;102583.03;5063847;28;60633;-59
2024/02/18 03:49:36;;;;;;;;;7.50;7.00;;;;;10.77;61.39;102580.41;5061594;28;45405;-57
2024/02/18 03:52:01;;;;;;;;;9.00;6.50;;;;;10.77;61.31;102572.56;5072834;27;46283;-57
2024/02/18 03:54:27;;;;;;;;;10.50;6.00;;;;;10.76;61.31;102565.56;5073983;28;67664;-59
2024/02/18 03:56:52;;;;;;;;;8.50;6.50;;;;;10.77;61.11;102561.22;5068905;28;45303;-59
2024/02/18 03:59:18;;;;;;;;;7.75;6.75;;;;;10.77;61.33;102561.22;5067817;28;45254;-58
2024/02/18 04:01:43;;;;;;;;;5.75;5.75;;;;;10.77;61.39;102558.59;5067327;28;46060;-58
2024/02/18 04:04:09;;;;;;;;;8.75;7.75;;;;;10.77;61.54;102555.97;5066724;28;70136;-58
2024/02/18 04:06:34;;;;;;;;;8.75;7.25;;;;;10.77;61.39;102550.75;5059876;28;65096;-59
2024/02/18 04:09:00;;;;;;;;;9.50;8.00;;;;;10.78;61.62;102547.22;5061959;28;45359;-58
2024/02/18 04:11:25;;;;;;;;;12.75;8.75;;;;;10.76;61.33;102536.75;5062944;27;46106;-59
2024/02/18 04:13:50;;;;;;;;;9.50;7.75;;;;;10.73;61.20;102542.00;5067721;28;45318;-59
2024/02/18 04:16:16;;;;;;;;;8.00;7.25;;;;;10.72;61.28;102531.53;5074731;28;68436;-59
2024/02/18 04:18:42;;;;;;;;;7.75;6.25;;;;;10.72;61.57;102531.53;5065047;28;68926;-58
2024/02/18 04:21:08;;;;;;;;;11.00;8.00;;;;;10.71;61.37;102524.53;5066719;28;46204;-59
2024/02/18 04:23:33;;;;;;;;;11.75;7.50;;;;;10.69;61.33;102524.53;5062322;28;72172;-59
2024/02/18 04:25:59;;;;;;;;;8.25;7.00;;;;;10.71;61.82;102516.69;5057974;28;45474;-59
2024/02/18 04:28:24;;;;;;;;;8.25;8.00;;;;;10.69;61.73;102524.53;5064846;28;71314;-59
2024/02/18 04:30:49;;;;;;;;;11.00;7.75;;;;;10.71;61.60;102530.66;5059880;28;45898;-60
2024/02/18 04:33:15;;;;;;;;;8.00;7.00;;;;;10.71;61.71;102522.81;5063638;28;73036;-58
2024/02/18 04:35:40;;;;;;;;;10.75;7.00;;;;;10.71;61.72;102528.03;5067842;28;70443;-58
2024/02/18 04:38:05;;;;;;;;;14.50;8.00;;;;;10.71;61.43;102512.34;5070394;27;48777;-59
2024/02/18 04:40:31;;;;;;;;;9.00;8.25;;;;;10.72;61.46;102515.81;5070967;27;72181;-58
2024/02/18 04:42:56;;;;;;;;;11.00;6.00;;;;;10.72;61.87;102507.97;5072242;28;45577;-58
2024/02/18 04:45:21;;;;;;;;;6.00;6.00;;;;;10.72;61.68;102510.59;5070374;27;60162;-59
2024/02/18 04:47:47;;;;;;;;;13.25;6.00;;;;;10.72;61.49;102507.97;5064713;27;69090;-59
2024/02/18 04:50:12;;;;;;;;;7.25;4.75;;;;;10.71;61.47;102511.44;5072079;27;73024;-59
2024/02/18 04:52:38;;;;;;;;;5.75;5.00;;;;;10.68;61.92;102512.31;5087860;27;72074;-58
2024/02/18 04:55:04;;;;;;;;;6.25;5.00;;;;;10.67;61.75;102509.69;5065974;27;45273;-58
2024/02/18 04:57:30;;;;;;;;;8.50;6.50;;;;;10.63;61.79;102504.44;5072645;28;45462;-59
2024/02/18 04:59:55;;;;;;;;;8.00;6.00;;;;;10.61;61.60;102495.72;5076923;27;45862;-58
2024/02/18 05:02:20;;;;;;;;;9.75;5.50;;;;;10.60;61.63;102491.34;5076999;27;46685;-57
2024/02/18 05:04:46;;;;;;;;;5.25;5.25;;;;;10.60;61.81;102493.09;5070583;27;46035;-57
2024/02/18 05:07:11;;;;;;;;;6.75;6.00;;;;;10.59;61.71;102494.84;5067437;27;66077;-59
2024/02/18 05:09:40;;;;;;;;;7.50;6.00;;;;;10.60;62.05;102495.72;5067445;28;61233;-59
2024/02/18 05:12:06;;;;;;;;;9.00;6.50;;;;;10.59;61.81;102500.09;5068614;27;45353;-58
2024/02/18 05:14:31;;;;;;;;;9.00;7.00;;;;;10.60;62.00;102498.34;5062818;28;45469;-60
2024/02/18 05:16:59;;;;;;;;;6.75;6.75;;;;;10.59;61.99;102500.09;5062891;28;45315;-58
2024/02/18 05:19:24;;;;;;;;;7.50;5.75;;;;;10.60;62.05;102509.66;5071354;27;45548;-59
2024/02/18 05:21:50;;;;;;;;;8.25;6.00;;;;;10.60;61.91;102500.97;5079413;27;45443;-59
2024/02/18 05:24:16;;;;;;;;;9.50;7.00;;;;;10.60;62.15;102495.72;5062658;27;45497;-58
2024/02/18 05:26:42;;;;;;;;;11.50;7.00;;;;;10.61;62.10;102495.72;5083074;27;45469;-59
2024/02/18 05:29:07;;;;;;;;;9.75;7.00;;;;;10.60;61.91;102501.81;5069487;27;46943;-59
2024/02/18 05:31:33;;;;;;;;;8.00;6.50;;;;;10.61;62.11;102498.34;5069768;27;45314;-59
2024/02/18 05:33:58;;;;;;;;;6.25;5.00;;;;;10.62;62.04;102507.06;5073245;27;45399;-58
2024/02/18 05:36:24;;;;;;;;;6.00;6.00;;;;;10.62;62.28;102496.59;5080147;27;61516;-59
2024/02/18 05:38:49;;;;;;;;;8.25;6.00;;;;;10.60;62.12;102488.72;5072411;27;56676;-58
2024/02/18 05:41:16;;;;;;;;;8.00;7.00;;;;;10.59;62.31;102486.13;5066762;27;45541;-59
2024/02/18 05:43:41;;;;;;;;;6.75;5.25;;;;;10.60;62.21;102486.13;5070365;27;45300;-59
2024/02/18 05:46:08;;;;;;;;;7.25;7.00;;;;;10.60;62.48;102486.13;5062613;28;73658;-60
2024/02/18 05:48:34;;;;;;;;;9.00;6.00;;;;;10.58;62.31;102482.63;5079003;27;46972;-59
2024/02/18 05:50:59;;;;;;;;;14.50;5.75;;;;;10.58;62.41;102489.63;5071379;27;45406;-59
2024/02/18 05:53:25;;;;;;;;;7.00;6.00;;;;;10.59;62.47;102488.75;5069495;27;45432;-60
2024/02/18 05:55:50;;;;;;;;;6.75;6.00;;;;;10.59;62.49;102492.25;5069007;27;45398;-58
2024/02/18 05:58:16;;;;;;;;;10.50;7.00;;;;;10.59;62.14;102494.84;5072946;27;45353;-58
2024/02/18 06:00:41;;;;;;;;;11.00;6.50;;;;;10.59;62.47;102488.75;5073048;27;45314;-58
2024/02/18 06:03:07;;;;;;;;;6.25;5.00;;;;;10.57;62.72;102486.13;5067927;27;45321;-58
2024/02/18 06:05:32;;;;;;;;;5.00;5.00;;;;;10.60;62.54;102486.13;5070082;27;70143;-59
2024/02/18 06:07:58;;;;;;;;;6.75;5.75;;;;;10.60;62.51;102478.25;5062912;27;73414;-56
2024/02/18 06:10:24;;;;;;;;;7.00;6.00;;;;;10.61;62.44;102480.00;5062416;27;71807;-56
2024/02/18 06:12:49;;;;;;;;;6.50;4.50;;;;;10.64;62.83;102495.75;5068201;27;45647;-57
2024/02/18 06:15:14;;;;;;;;;6.50;6.00;;;;;10.66;62.66;102487.00;5071149;27;45485;-58
2024/02/18 06:17:40;;;;;;;;;8.75;6.50;;;;;10.66;63.03;102473.91;5069762;27;75997;-60
2024/02/18 06:20:07;;;;;;;;;8.00;6.50;;;;;10.65;63.25;102480.88;5068560;27;45643;-59
2024/02/18 06:22:32;;;;;;;;;6.75;6.75;;;;;10.67;63.25;102471.28;5071645;27;45749;-59
2024/02/18 06:24:58;;;;;;;;;7.75;6.00;;;;;10.66;63.41;102477.41;5067308;28;65810;-59
2024/02/18 06:27:23;;;;;;;;;7.00;6.00;;;;;10.66;63.53;102466.03;5067654;27;45374;-60
2024/02/18 06:29:49;;;;;;;;;12.25;6.75;;;;;10.64;63.63;102455.56;5062324;27;45275;-59
2024/02/18 06:32:14;;;;;;;;;6.25;6.00;;;;;10.63;63.80;102451.22;5066343;27;45303;-58
2024/02/18 06:34:39;;;;;;;;;6.00;5.25;;;;;10.62;64.47;102433.75;5076095;28;45962;-59
2024/02/18 06:37:05;;;;;;;;;6.00;5.00;;;;;10.61;64.28;102419.81;5072608;27;74953;-59
2024/02/18 06:39:30;;;;;;;;;5.50;5.50;;;;;10.59;64.34;102412.84;5060917;27;58752;-59
2024/02/18 06:41:56;;;;;;;;;8.50;7.00;;;;;10.59;64.65;102415.44;5070559;27;45360;-59
2024/02/18 06:44:22;;;;;;;;;7.50;6.00;;;;;10.56;64.69;102420.69;5076275;27;45518;-59
2024/02/18 06:46:50;;;;;;;;;7.25;6.00;;;;;10.54;65.06;102423.28;5064533;28;45449;-59
2024/02/18 06:49:16;;;;;;;;;11.25;7.00;;;;;10.56;64.86;102416.31;5067402;28;45267;-59
2024/02/18 06:51:41;;;;;;;;;7.25;7.25;;;;;10.56;65.14;102413.69;5064594;27;67685;-58
2024/02/18 06:54:06;;;;;;;;;9.25;6.75;;;;;10.57;65.16;102422.41;5066216;27;73086;-58
2024/02/18 06:56:32;;;;;;;;;8.25;6.00;;;;;10.55;65.16;102421.53;5074493;27;45375;-58
2024/02/18 06:58:57;;;;;;;;;7.00;6.00;;;;;10.54;65.14;102428.53;5063620;28;45264;-59
2024/02/18 07:01:22;;;;;;;;;7.25;5.25;;;;;10.51;65.30;102425.91;5069139;28;45949;-59
2024/02/18 07:03:48;;;;;;;;;6.00;5.00;;;;;10.55;65.05;102425.06;5075388;28;45284;-59
2024/02/18 07:06:14;;;;;;;;;9.00;6.25;;;;;10.56;65.26;102420.69;5071866;28;74419;-59
2024/02/18 07:08:39;;;;;;;;;6.00;5.00;;;;;10.60;65.32;102414.56;5065398;27;45311;-58
2024/02/18 07:11:04;;;;;;;;;11.00;5.25;;;;;10.57;65.12;102399.75;5072057;27;68944;-58
2024/02/18 07:13:30;;;;;;;;;7.00;5.00;;;;;10.58;65.16;102411.94;5069485;28;72996;-59
2024/02/18 07:15:55;;;;;;;;;9.25;6.00;;;;;10.57;65.56;102396.22;5068808;28;70890;-59
2024/02/18 07:18:21;;;;;;;;;4.75;4.75;;;;;10.58;65.21;102384.91;5066852;28;45442;-57
2024/02/18 07:20:46;;;;;;;;;9.50;7.00;;;;;10.58;65.59;102375.28;5065461;27;45401;-56
2024/02/18 07:23:12;;;;;;;;;7.25;4.50;;;;;10.59;65.38;102363.09;5070235;27;73354;-58
2024/02/18 07:25:40;;;;;;;;;6.00;6.00;;;;;10.60;65.27;102368.31;5062450;27;64397;-59
2024/02/18 07:28:05;;;;;;;;;8.50;5.00;;;;;10.56;65.84;102374.44;5066431;27;45310;-59
2024/02/18 07:30:31;;;;;;;;;6.00;5.50;;;;;10.56;65.82;102365.72;5068204;28;45752;-59
2024/02/18 07:32:57;;;;;;;;;8.00;5.25;;;;;10.55;65.76;102362.22;5073045;28;45478;-59
2024/02/18 07:35:22;;;;;;;;;9.25;6.00;;;;;10.56;65.53;102357.84;5068729;28;75344;-59
2024/02/18 07:37:48;;;;;;;;;6.50;4.25;;;;;10.57;65.86;102357.84;5067059;27;72150;-58
2024/02/18 07:40:13;;;;;;;;;6.75;6.00;;;;;10.58;65.90;102367.44;5065277;27;70352;-58
2024/02/18 07:42:39;;;;;;;;;6.75;5.00;;;;;10.59;65.55;102347.38;5065586;28;47148;-59
2024/02/18 07:45:05;;;;;;;;;5.00;5.00;;;;;10.61;65.63;102350.88;5073410;28;45509;-59
2024/02/18 07:47:31;;;;;;;;;6.25;4.75;;;;;10.63;66.28;102355.22;5072962;27;46060;-59
2024/02/18 07:49:57;;;;;;;;;8.50;6.00;;;;;10.69;66.01;102371.78;5062245;28;45304;-59
2024/02/18 07:52:22;;;;;;;;;5.50;4.75;;;;;10.73;65.87;102365.66;5066671;27;71743;-58
2024/02/18 07:54:47;;;;;;;;;5.50;4.75;;;;;10.75;65.32;102363.94;5062993;27;75680;-58
2024/02/18 07:57:13;;;;;;;;;8.75;5.50;;;;;10.77;65.56;102359.56;5071303;27;45450;-59
2024/02/18 07:59:38;;;;;;;;;5.00;5.00;;;;;10.80;65.34;102362.16;5069719;27;45536;-58
2024/02/18 08:02:03;;;;;;;;;6.25;6.00;;;;;10.81;65.47;102367.41;5074184;27;45430;-58
2024/02/18 08:04:29;;;;;;;;;5.25;4.50;;;;;10.82;65.20;102384.88;5072988;28;73424;-59
2024/02/18 08:06:54;;;;;;;;;5.25;5.25;;;;;10.82;65.37;102378.78;5071782;27;60112;-58
2024/02/18 08:09:19;;;;;;;;;7.75;5.75;;;;;10.83;65.40;102380.50;5070570;27;67503;-59
2024/02/18 08:11:45;;;;;;;;;9.50;5.00;;;;;10.83;65.38;102380.50;5063775;27;66805;-59
2024/02/18 08:14:10;;;;;;;;;6.75;5.50;;;;;10.86;65.41;102385.75;5068972;28;50005;-59
2024/02/18 08:16:35;;;;;;;;;9.00;7.00;;;;;10.89;65.12;102370.03;5063886;28;58892;-58
2024/02/18 08:19:01;;;;;;;;;9.50;6.00;;;;;10.94;65.04;102372.63;5074077;27;69141;-57
2024/02/18 08:21:27;;;;;;;;;6.25;4.50;;;;;10.97;65.07;102364.75;5067253;27;45481;-58
2024/02/18 08:23:53;;;;;;;;;9.75;5.00;;;;;10.98;64.97;102367.38;5075874;28;47291;-59
2024/02/18 08:26:23;;;;;;;;;4.00;4.00;;;;;11.00;65.15;102360.38;5064045;27;45232;-60
2024/02/18 08:28:49;;;;;;;;;6.50;4.00;;;;;11.01;65.09;102353.41;5064833;27;45462;-61
2024/02/18 08:31:15;;;;;;;;;10.25;4.75;;;;;11.08;64.97;102351.63;5072271;27;45526;-60
2024/02/18 08:33:40;;;;;;;;;9.50;7.00;;;;;11.09;65.22;102348.16;5075849;28;48623;-58
2024/02/18 08:36:06;;;;;;;;;7.50;5.25;;;;;11.11;65.40;102344.63;5063169;28;73360;-59
2024/02/18 08:38:31;;;;;;;;;5.00;3.50;;;;;11.14;65.14;102349.88;5062257;28;45324;-60
2024/02/18 08:40:56;;;;;;;;;6.50;5.50;;;;;11.18;65.14;102362.06;5069628;27;46497;-60
2024/02/18 08:43:22;;;;;;;;;7.75;4.50;;;;;11.23;65.09;102366.44;5071924;27;59787;-59
2024/02/18 08:45:47;;;;;;;;;5.75;4.00;;;;;11.27;65.03;102362.94;5073961;27;45287;-59
2024/02/18 08:48:13;;;;;;;;;6.75;5.00;;;;;11.31;65.31;102373.38;5075203;27;69317;-59
2024/02/18 08:50:39;;;;;;;;;6.75;6.00;;;;;11.33;65.45;102358.56;5069571;27;45456;-59
2024/02/18 08:53:05;;;;;;;;;5.75;4.50;;;;;11.37;65.08;102362.03;5073804;27;45551;-59
2024/02/18 08:55:30;;;;;;;;;6.25;5.00;;;;;11.43;65.09;102353.25;5074947;27;45354;-59
2024/02/18 08:57:55;;;;;;;;;5.25;5.25;;;;;11.47;64.96;102357.59;5070510;27;69157;-59
2024/02/18 09:00:21;;;;;;;;;4.50;4.50;;;;;11.49;65.43;102361.09;5069354;28;72145;-65
2024/02/18 09:02:46;;;;;;;;;6.50;4.75;;;;;11.51;65.32;102354.06;5074761;27;72406;-60
2024/02/18 09:05:11;;;;;;;;;5.50;5.00;;;;;11.52;65.56;102351.44;5078298;27;45400;-61
2024/02/18 09:07:37;;;;;;;;;5.25;4.50;;;;;11.54;65.74;102394.28;5067642;27;45293;-61
2024/02/18 09:10:02;;;;;;;;;8.25;4.75;;;;;11.55;66.18;102396.00;5072294;27;68983;-59
2024/02/18 09:12:28;;;;;;;;;5.50;4.00;;;;;11.56;67.26;102408.25;5076028;27;47563;-60
2024/02/18 09:14:53;;;;;;;;;7.50;5.75;;;;;11.58;67.33;102406.50;5072581;28;71968;-59
2024/02/18 09:17:19;;;;;;;;;5.00;4.00;;;;;11.59;67.79;102409.97;5072351;27;57994;-59
2024/02/18 09:19:48;;;;;;;;;8.75;6.00;;;;;11.59;68.10;102404.75;5071450;27;45355;-60
2024/02/18 09:22:13;;;;;;;;;7.25;5.00;;;;;11.56;68.46;102389.00;5067869;27;45322;-59
2024/02/18 09:24:41;;;;;;;;;7.50;4.25;;;;;11.56;68.78;102392.53;5069422;27;73182;-59
2024/02/18 09:27:07;;;;;;;;;5.00;5.00;;;;;11.59;69.17;102384.63;5076157;27;45549;-59
2024/02/18 09:29:32;;;;;;;;;5.25;3.00;;;;;11.61;68.87;102392.47;5071985;27;45331;-60
2024/02/18 09:31:59;;;;;;;;;6.25;5.00;;;;;11.64;69.14;102405.59;5075455;27;45549;-60
2024/02/18 09:34:24;;;;;;;;;7.75;5.00;;;;;11.67;69.52;102402.06;5068586;27;45415;-59
2024/02/18 09:36:49;;;;;;;;;5.25;4.75;;;;;11.66;70.26;102395.97;5070219;27;62679;-56
2024/02/18 09:39:15;;;;;;;;;7.25;5.00;;;;;11.67;70.03;102392.47;5073805;27;62902;-57
2024/02/18 09:41:43;;;;;;;;;4.50;4.50;;;;;11.67;70.10;102379.38;5070310;27;61931;-56
2024/02/18 09:44:09;;;;;;;;;5.25;3.00;;;;;11.66;70.25;102374.13;5071977;28;45744;-58
2024/02/18 09:46:36;;;;;;;;;5.25;3.00;;;;;11.66;69.68;102379.38;5079368;27;45256;-57
2024/02/18 09:49:05;;;;;;;;;3.00;3.00;;;;;11.63;70.62;102376.75;5080988;27;45417;-57
2024/02/18 09:51:32;;;;;;;;;5.25;5.25;;;;;11.62;77.01;102362.78;5072948;27;46036;-63
2024/02/18 09:53:58;;;;;;;;;7.00;3.50;;;;;11.66;72.87;102358.38;5062808;27;45497;-56
2024/02/18 09:56:24;;;;;;;;;4.00;2.50;;;;;11.67;72.52;102345.28;5069695;27;45264;-57
2024/02/18 09:58:49;;;;;;;;;5.00;2.00;;;;;11.72;72.46;102342.59;5063220;27;45806;-57
2024/02/18 10:01:19;;;;;;;;;5.00;2.50;;;;;11.77;71.79;102336.47;5068965;27;45344;-57
2024/02/18 10:03:44;;;;;;;;;3.50;3.50;;;;;11.85;71.89;102332.94;5074294;27;45316;-56
2024/02/18 10:06:10;;;;;;;;;5.50;4.00;;;;;11.91;72.22;102338.16;5068685;27;45367;-56
2024/02/18 10:08:43;;;;;;;;;7.00;3.00;;;;;11.96;72.26;102324.13;5067006;28;45726;-57
2024/02/18 10:11:09;;;;;;;;;5.75;3.75;;;;;11.99;71.60;102330.22;5076271;28;47021;-55
2024/02/18 10:13:34;;;;;;;;;5.25;3.00;;;;;11.96;71.05;102337.22;5068059;27;45416;-58
2024/02/18 10:16:00;;;;;;;;;4.50;3.75;;;;;11.92;71.75;102337.28;5062935;28;55846;-62
2024/02/18 10:18:25;;;;;;;;;7.50;3.25;;;;;11.91;71.77;102333.75;5074300;27;45462;-64
2024/02/18 10:20:51;;;;;;;;;5.50;3.00;;;;;11.91;71.74;102328.53;5072941;27;46088;-61
2024/02/18 10:23:16;;;;;;;;;8.00;4.00;;;;;11.91;71.48;102331.16;5070070;27;45377;-59
2024/02/18 10:25:42;;;;;;;;;5.00;3.00;;;;;11.91;71.61;102333.75;5067003;27;65082;-59
2024/02/18 10:28:08;;;;;;;;;5.75;5.00;;;;;11.91;71.50;102333.75;5070735;28;45566;-59
2024/02/18 10:30:35;;;;;;;;;8.00;4.00;;;;;11.90;71.43;102337.28;5076791;27;46117;-57
2024/02/18 10:33:01;;;;;;;;;5.00;3.50;;;;;11.92;71.88;102329.41;5063262;28;45365;-58
2024/02/18 10:35:26;;;;;;;;;7.00;4.00;;;;;11.93;71.13;102329.41;5077419;27;58878;-58
2024/02/18 10:37:55;;;;;;;;;7.50;5.00;;;;;11.93;71.59;102321.53;5073231;28;71719;-58
2024/02/18 10:40:27;;;;;;;;;3.50;3.00;;;;;11.97;71.12;102319.75;5077347;27;49743;-58
2024/02/18 10:42:58;;;;;;;;;5.00;5.00;;;;;12.03;71.35;102306.59;5075950;27;45796;-58
2024/02/18 10:45:24;;;;;;;;;5.50;4.00;;;;;12.08;71.11;102303.94;5073763;27;45314;-57
2024/02/18 10:47:52;;;;;;;;;8.50;4.00;;;;;12.13;70.92;102308.25;5065706;27;45284;-58
2024/02/18 10:50:19;;;;;;;;;10.00;6.00;;;;;12.17;70.91;102313.50;5088028;27;45358;-58
2024/02/18 10:52:49;;;;;;;;;5.25;4.25;;;;;12.24;70.92;102316.03;5067575;28;45344;-58
2024/02/18 10:55:19;;;;;;;;;7.25;5.00;;;;;12.29;70.88;102311.63;5072541;28;45337;-58
2024/02/18 10:58:06;;;;;;;;;9.00;5.75;;;;;12.32;70.58;102308.97;5071108;27;45697;-58
2024/02/18 11:00:32;;;;;;;;;5.00;5.00;;;;;12.36;70.54;102312.44;5076057;27;45273;-58
2024/02/18 11:03:12;;;;;;;;;6.50;6.00;;;;;12.40;71.11;102310.66;5071172;27;72738;-59
2024/02/18 11:05:38;;;;;;;;;5.00;5.00;;;;;12.43;70.80;102308.88;5062453;28;45385;-59
2024/02/18 11:08:07;;;;;;;;;9.25;6.00;;;;;12.44;70.77;102318.47;5066219;28;45311;-58
2024/02/18 11:10:34;;;;;;;;;14.50;9.50;;;;;12.47;70.74;102309.72;5061551;28;47288;-58
2024/02/18 11:12:59;;;;;;;;;5.75;4.00;;;;;12.49;70.99;102306.19;5067435;27;45728;-59
2024/02/18 11:15:24;;;;;;;;;4.50;4.50;;;;;12.47;71.03;102305.31;5066249;27;45292;-58